sensor_id;sensor_type;location;lat;lon;timestamp;temperature;humidity
55135;DHT22;41031;44.750;11.308;2023-02-18T00:01:15;6.00;86.10
55135;DHT22;41031;44.750;11.308;2023-02-18T00:03:43;6.00;86.60
55135;DHT22;41031;44.750;11.308;2023-02-18T00:08:43;5.90;86.50
55135;DHT22;41031;44.750;11.308;2023-02-18T00:11:11;5.80;86.30
55135;DHT22;41031;44.750;11.308;2023-02-18T00:13:38;5.80;86.50
55135;DHT22;41031;44.750;11.308;2023-02-18T00:16:12;5.80;86.80
55135;DHT22;41031;44.750;11.308;2023-02-18T00:18:40;5.70;87.00
55135;DHT22;41031;44.750;11.308;2023-02-18T00:21:08;5.70;87.40
55135;DHT22;41031;44.750;11.308;2023-02-18T00:23:35;5.70;87.80
55135;DHT22;41031;44.750;11.308;2023-02-18T00:26:05;5.70;88.10
55135;DHT22;41031;44.750;11.308;2023-02-18T00:28:33;5.60;87.90
55135;DHT22;41031;44.750;11.308;2023-02-18T00:31:28;5.60;88.40
55135;DHT22;41031;44.750;11.308;2023-02-18T00:33:58;5.50;87.70
55135;DHT22;41031;44.750;11.308;2023-02-18T00:36:27;5.40;87.50
55135;DHT22;41031;44.750;11.308;2023-02-18T00:38:58;5.30;87.50
55135;DHT22;41031;44.750;11.308;2023-02-18T00:41:28;5.20;87.40
55135;DHT22;41031;44.750;11.308;2023-02-18T00:43:56;5.10;87.50
55135;DHT22;41031;44.750;11.308;2023-02-18T00:46:23;5.10;87.60
55135;DHT22;41031;44.750;11.308;2023-02-18T00:48:52;5.00;87.60
55135;DHT22;41031;44.750;11.308;2023-02-18T00:51:20;5.00;87.50
55135;DHT22;41031;44.750;11.308;2023-02-18T00:53:50;4.90;87.40
55135;DHT22;41031;44.750;11.308;2023-02-18T00:56:18;4.90;87.60
55135;DHT22;41031;44.750;11.308;2023-02-18T00:58:45;4.90;87.70
55135;DHT22;41031;44.750;11.308;2023-02-18T01:01:12;4.80;87.80
55135;DHT22;41031;44.750;11.308;2023-02-18T01:03:41;4.80;87.90
55135;DHT22;41031;44.750;11.308;2023-02-18T01:06:09;4.70;87.90
55135;DHT22;41031;44.750;11.308;2023-02-18T01:08:38;4.70;87.90
55135;DHT22;41031;44.750;11.308;2023-02-18T01:11:07;4.60;87.60
55135;DHT22;41031;44.750;11.308;2023-02-18T01:13:38;4.60;87.50
55135;DHT22;41031;44.750;11.308;2023-02-18T01:16:06;4.60;87.60
55135;DHT22;41031;44.750;11.308;2023-02-18T01:18:34;4.50;87.70
55135;DHT22;41031;44.750;11.308;2023-02-18T01:21:04;4.50;87.90
55135;DHT22;41031;44.750;11.308;2023-02-18T01:23:39;4.50;88.00
55135;DHT22;41031;44.750;11.308;2023-02-18T01:26:07;4.40;87.60
55135;DHT22;41031;44.750;11.308;2023-02-18T01:28:36;4.40;87.60
55135;DHT22;41031;44.750;11.308;2023-02-18T01:31:10;4.30;88.10
55135;DHT22;41031;44.750;11.308;2023-02-18T01:33:38;4.30;88.40
55135;DHT22;41031;44.750;11.308;2023-02-18T01:36:06;4.20;88.40
55135;DHT22;41031;44.750;11.308;2023-02-18T01:38:34;4.20;88.40
55135;DHT22;41031;44.750;11.308;2023-02-18T01:41:02;4.20;88.20
55135;DHT22;41031;44.750;11.308;2023-02-18T01:43:31;4.20;87.80
55135;DHT22;41031;44.750;11.308;2023-02-18T01:46:19;4.10;87.50
55135;DHT22;41031;44.750;11.308;2023-02-18T01:48:48;4.00;87.60
55135;DHT22;41031;44.750;11.308;2023-02-18T01:51:24;4.00;87.70
55135;DHT22;41031;44.750;11.308;2023-02-18T01:54:10;3.90;87.70
55135;DHT22;41031;44.750;11.308;2023-02-18T01:56:50;3.90;88.10
55135;DHT22;41031;44.750;11.308;2023-02-18T01:59:23;3.90;88.30
55135;DHT22;41031;44.750;11.308;2023-02-18T02:01:52;3.90;88.70
55135;DHT22;41031;44.750;11.308;2023-02-18T02:04:19;3.80;88.50
55135;DHT22;41031;44.750;11.308;2023-02-18T02:06:47;3.80;87.80
55135;DHT22;41031;44.750;11.308;2023-02-18T02:09:16;3.70;87.80
55135;DHT22;41031;44.750;11.308;2023-02-18T02:17:15;3.60;88.40
55135;DHT22;41031;44.750;11.308;2023-02-18T02:25:16;3.60;88.80
55135;DHT22;41031;44.750;11.308;2023-02-18T02:36:19;3.40;89.20
55135;DHT22;41031;44.750;11.308;2023-02-18T02:38:56;3.40;89.60
55135;DHT22;41031;44.750;11.308;2023-02-18T02:41:45;3.40;89.90
55135;DHT22;41031;44.750;11.308;2023-02-18T02:44:28;3.50;90.00
55135;DHT22;41031;44.750;11.308;2023-02-18T02:47:04;3.50;90.00
55135;DHT22;41031;44.750;11.308;2023-02-18T02:50:33;3.50;89.70
55135;DHT22;41031;44.750;11.308;2023-02-18T02:53:00;3.50;89.50
55135;DHT22;41031;44.750;11.308;2023-02-18T02:55:30;3.50;89.30
55135;DHT22;41031;44.750;11.308;2023-02-18T02:57:58;3.60;89.20
55135;DHT22;41031;44.750;11.308;2023-02-18T03:04:08;3.50;89.50
55135;DHT22;41031;44.750;11.308;2023-02-18T03:07:07;3.50;89.70
55135;DHT22;41031;44.750;11.308;2023-02-18T03:15:57;3.50;90.10
55135;DHT22;41031;44.750;11.308;2023-02-18T03:18:34;3.50;90.60
55135;DHT22;41031;44.750;11.308;2023-02-18T03:22:02;3.50;90.40
55135;DHT22;41031;44.750;11.308;2023-02-18T03:26:47;3.50;90.70
55135;DHT22;41031;44.750;11.308;2023-02-18T03:29:18;3.40;90.60
55135;DHT22;41031;44.750;11.308;2023-02-18T03:31:53;3.40;90.60
55135;DHT22;41031;44.750;11.308;2023-02-18T03:34:27;3.40;90.80
55135;DHT22;41031;44.750;11.308;2023-02-18T03:36:58;3.40;90.70
55135;DHT22;41031;44.750;11.308;2023-02-18T03:39:29;3.50;90.80
55135;DHT22;41031;44.750;11.308;2023-02-18T03:41:57;3.40;90.80
55135;DHT22;41031;44.750;11.308;2023-02-18T03:44:24;3.40;90.70
55135;DHT22;41031;44.750;11.308;2023-02-18T03:46:52;3.40;90.70
55135;DHT22;41031;44.750;11.308;2023-02-18T03:49:19;3.30;90.70
55135;DHT22;41031;44.750;11.308;2023-02-18T03:51:47;3.30;90.80
55135;DHT22;41031;44.750;11.308;2023-02-18T03:54:14;3.30;90.60
55135;DHT22;41031;44.750;11.308;2023-02-18T03:56:42;3.30;90.60
55135;DHT22;41031;44.750;11.308;2023-02-18T03:59:11;3.30;90.60
55135;DHT22;41031;44.750;11.308;2023-02-18T04:01:39;3.30;90.60
55135;DHT22;41031;44.750;11.308;2023-02-18T04:04:07;3.30;90.50
55135;DHT22;41031;44.750;11.308;2023-02-18T04:06:34;3.30;90.50
55135;DHT22;41031;44.750;11.308;2023-02-18T04:09:02;3.30;90.50
55135;DHT22;41031;44.750;11.308;2023-02-18T04:11:38;3.20;90.30
55135;DHT22;41031;44.750;11.308;2023-02-18T04:14:08;3.20;89.90
55135;DHT22;41031;44.750;11.308;2023-02-18T04:16:36;3.10;89.30
55135;DHT22;41031;44.750;11.308;2023-02-18T04:19:03;3.00;89.80
55135;DHT22;41031;44.750;11.308;2023-02-18T04:21:32;2.90;90.40
55135;DHT22;41031;44.750;11.308;2023-02-18T04:24:01;2.90;91.10
55135;DHT22;41031;44.750;11.308;2023-02-18T04:26:29;2.80;91.10
55135;DHT22;41031;44.750;11.308;2023-02-18T04:28:58;2.80;91.30
55135;DHT22;41031;44.750;11.308;2023-02-18T04:31:25;2.70;91.50
55135;DHT22;41031;44.750;11.308;2023-02-18T04:33:52;2.70;91.70
55135;DHT22;41031;44.750;11.308;2023-02-18T04:36:19;2.70;91.90
55135;DHT22;41031;44.750;11.308;2023-02-18T04:38:47;2.70;92.00
55135;DHT22;41031;44.750;11.308;2023-02-18T04:41:14;2.70;92.00
55135;DHT22;41031;44.750;11.308;2023-02-18T04:43:41;2.70;92.00
55135;DHT22;41031;44.750;11.308;2023-02-18T04:46:08;2.70;92.00
55135;DHT22;41031;44.750;11.308;2023-02-18T04:48:36;2.70;92.00
55135;DHT22;41031;44.750;11.308;2023-02-18T04:51:04;2.70;92.10
55135;DHT22;41031;44.750;11.308;2023-02-18T04:53:31;2.60;92.10
55135;DHT22;41031;44.750;11.308;2023-02-18T04:55:58;2.60;92.30
55135;DHT22;41031;44.750;11.308;2023-02-18T04:58:26;2.60;92.30
55135;DHT22;41031;44.750;11.308;2023-02-18T05:00:57;2.60;92.50
55135;DHT22;41031;44.750;11.308;2023-02-18T05:03:25;2.60;92.50
55135;DHT22;41031;44.750;11.308;2023-02-18T05:05:52;2.60;92.40
55135;DHT22;41031;44.750;11.308;2023-02-18T05:08:19;2.70;92.40
55135;DHT22;41031;44.750;11.308;2023-02-18T05:10:47;2.60;92.20
55135;DHT22;41031;44.750;11.308;2023-02-18T05:13:14;2.70;92.20
55135;DHT22;41031;44.750;11.308;2023-02-18T05:15:41;2.70;92.20
55135;DHT22;41031;44.750;11.308;2023-02-18T05:18:08;2.70;92.10
55135;DHT22;41031;44.750;11.308;2023-02-18T05:20:35;2.70;92.00
55135;DHT22;41031;44.750;11.308;2023-02-18T05:23:03;2.70;91.90
55135;DHT22;41031;44.750;11.308;2023-02-18T05:25:30;2.70;92.00
55135;DHT22;41031;44.750;11.308;2023-02-18T05:27:57;2.60;92.00
55135;DHT22;41031;44.750;11.308;2023-02-18T05:30:24;2.60;91.90
55135;DHT22;41031;44.750;11.308;2023-02-18T05:32:51;2.60;91.90
55135;DHT22;41031;44.750;11.308;2023-02-18T05:35:18;2.60;91.90
55135;DHT22;41031;44.750;11.308;2023-02-18T05:37:47;2.60;91.90
55135;DHT22;41031;44.750;11.308;2023-02-18T05:40:14;2.60;91.80
55135;DHT22;41031;44.750;11.308;2023-02-18T05:42:41;2.50;91.90
55135;DHT22;41031;44.750;11.308;2023-02-18T05:45:08;2.60;92.00
55135;DHT22;41031;44.750;11.308;2023-02-18T05:47:36;2.60;92.10
55135;DHT22;41031;44.750;11.308;2023-02-18T05:50:03;2.50;91.90
55135;DHT22;41031;44.750;11.308;2023-02-18T05:52:31;2.50;91.70
55135;DHT22;41031;44.750;11.308;2023-02-18T05:54:58;2.50;91.70
55135;DHT22;41031;44.750;11.308;2023-02-18T05:57:25;2.40;91.70
55135;DHT22;41031;44.750;11.308;2023-02-18T05:59:53;2.40;91.80
55135;DHT22;41031;44.750;11.308;2023-02-18T06:02:27;2.40;91.90
55135;DHT22;41031;44.750;11.308;2023-02-18T06:04:56;2.40;91.90
55135;DHT22;41031;44.750;11.308;2023-02-18T06:07:25;2.40;91.80
55135;DHT22;41031;44.750;11.308;2023-02-18T06:09:53;2.30;91.90
55135;DHT22;41031;44.750;11.308;2023-02-18T06:12:22;2.30;92.00
55135;DHT22;41031;44.750;11.308;2023-02-18T06:14:53;2.30;92.10
55135;DHT22;41031;44.750;11.308;2023-02-18T06:17:21;2.30;92.20
55135;DHT22;41031;44.750;11.308;2023-02-18T06:19:52;2.30;92.20
55135;DHT22;41031;44.750;11.308;2023-02-18T06:22:20;2.30;92.20
55135;DHT22;41031;44.750;11.308;2023-02-18T06:24:52;2.30;92.30
55135;DHT22;41031;44.750;11.308;2023-02-18T06:27:22;2.30;92.30
55135;DHT22;41031;44.750;11.308;2023-02-18T06:29:49;2.40;92.30
55135;DHT22;41031;44.750;11.308;2023-02-18T06:32:18;2.40;92.30
55135;DHT22;41031;44.750;11.308;2023-02-18T06:34:45;2.40;92.10
55135;DHT22;41031;44.750;11.308;2023-02-18T06:37:13;2.40;92.00
55135;DHT22;41031;44.750;11.308;2023-02-18T06:39:40;2.50;92.00
55135;DHT22;41031;44.750;11.308;2023-02-18T06:42:08;2.50;92.00
55135;DHT22;41031;44.750;11.308;2023-02-18T06:44:35;2.50;92.00
55135;DHT22;41031;44.750;11.308;2023-02-18T06:47:05;2.60;92.00
55135;DHT22;41031;44.750;11.308;2023-02-18T06:49:33;2.60;91.90
55135;DHT22;41031;44.750;11.308;2023-02-18T06:52:06;2.60;91.90
55135;DHT22;41031;44.750;11.308;2023-02-18T06:54:33;2.70;91.90
55135;DHT22;41031;44.750;11.308;2023-02-18T06:57:01;2.70;91.80
55135;DHT22;41031;44.750;11.308;2023-02-18T06:59:29;2.70;91.80
55135;DHT22;41031;44.750;11.308;2023-02-18T07:02:00;2.80;91.90
55135;DHT22;41031;44.750;11.308;2023-02-18T07:04:28;2.80;91.70
55135;DHT22;41031;44.750;11.308;2023-02-18T07:06:55;2.80;91.70
55135;DHT22;41031;44.750;11.308;2023-02-18T07:09:23;2.80;91.80
55135;DHT22;41031;44.750;11.308;2023-02-18T07:11:51;2.80;91.80
55135;DHT22;41031;44.750;11.308;2023-02-18T07:14:19;2.90;91.80
55135;DHT22;41031;44.750;11.308;2023-02-18T07:16:47;3.00;91.80
55135;DHT22;41031;44.750;11.308;2023-02-18T07:19:15;3.00;91.80
55135;DHT22;41031;44.750;11.308;2023-02-18T07:21:43;3.10;91.70
55135;DHT22;41031;44.750;11.308;2023-02-18T07:24:11;3.10;91.50
55135;DHT22;41031;44.750;11.308;2023-02-18T07:26:39;3.20;91.40
55135;DHT22;41031;44.750;11.308;2023-02-18T07:29:07;3.40;91.20
55135;DHT22;41031;44.750;11.308;2023-02-18T07:31:35;3.60;90.90
55135;DHT22;41031;44.750;11.308;2023-02-18T07:34:02;3.70;90.80
55135;DHT22;41031;44.750;11.308;2023-02-18T07:36:30;3.90;90.50
55135;DHT22;41031;44.750;11.308;2023-02-18T07:38:57;4.00;90.30
55135;DHT22;41031;44.750;11.308;2023-02-18T07:41:24;4.20;90.20
55135;DHT22;41031;44.750;11.308;2023-02-18T07:43:52;4.30;90.00
55135;DHT22;41031;44.750;11.308;2023-02-18T07:46:19;4.40;89.60
55135;DHT22;41031;44.750;11.308;2023-02-18T07:48:48;4.50;89.40
55135;DHT22;41031;44.750;11.308;2023-02-18T07:51:15;4.50;89.10
55135;DHT22;41031;44.750;11.308;2023-02-18T07:53:44;4.50;89.00
55135;DHT22;41031;44.750;11.308;2023-02-18T07:56:11;4.50;89.20
55135;DHT22;41031;44.750;11.308;2023-02-18T07:58:38;4.60;89.30
55135;DHT22;41031;44.750;11.308;2023-02-18T08:01:11;4.60;89.70
55135;DHT22;41031;44.750;11.308;2023-02-18T08:03:41;4.60;90.00
55135;DHT22;41031;44.750;11.308;2023-02-18T08:06:20;4.70;90.10
55135;DHT22;41031;44.750;11.308;2023-02-18T08:08:47;4.70;90.20
55135;DHT22;41031;44.750;11.308;2023-02-18T08:11:15;4.80;90.20
55135;DHT22;41031;44.750;11.308;2023-02-18T08:13:47;4.80;90.30
55135;DHT22;41031;44.750;11.308;2023-02-18T08:16:19;4.80;90.50
55135;DHT22;41031;44.750;11.308;2023-02-18T08:18:48;4.90;90.70
55135;DHT22;41031;44.750;11.308;2023-02-18T08:21:19;5.00;90.90
55135;DHT22;41031;44.750;11.308;2023-02-18T08:23:49;5.10;90.90
55135;DHT22;41031;44.750;11.308;2023-02-18T08:26:17;5.20;90.80
55135;DHT22;41031;44.750;11.308;2023-02-18T08:28:46;5.30;90.80
55135;DHT22;41031;44.750;11.308;2023-02-18T08:31:24;5.40;90.80
55135;DHT22;41031;44.750;11.308;2023-02-18T08:33:56;5.50;90.80
55135;DHT22;41031;44.750;11.308;2023-02-18T08:36:28;5.70;90.90
55135;DHT22;41031;44.750;11.308;2023-02-18T08:38:59;5.80;90.80
55135;DHT22;41031;44.750;11.308;2023-02-18T08:41:26;6.00;90.80
55135;DHT22;41031;44.750;11.308;2023-02-18T08:43:54;6.20;90.80
55135;DHT22;41031;44.750;11.308;2023-02-18T08:46:21;6.40;90.80
55135;DHT22;41031;44.750;11.308;2023-02-18T08:49:01;6.50;90.60
55135;DHT22;41031;44.750;11.308;2023-02-18T08:51:30;6.70;90.40
55135;DHT22;41031;44.750;11.308;2023-02-18T08:53:57;6.80;90.30
55135;DHT22;41031;44.750;11.308;2023-02-18T08:56:26;7.00;90.20
55135;DHT22;41031;44.750;11.308;2023-02-18T08:58:53;7.10;90.30
55135;DHT22;41031;44.750;11.308;2023-02-18T09:01:21;7.20;90.20
55135;DHT22;41031;44.750;11.308;2023-02-18T09:03:49;7.30;90.10
55135;DHT22;41031;44.750;11.308;2023-02-18T09:06:17;7.40;90.00
55135;DHT22;41031;44.750;11.308;2023-02-18T09:08:44;7.60;90.00
55135;DHT22;41031;44.750;11.308;2023-02-18T09:11:11;7.80;90.00
55135;DHT22;41031;44.750;11.308;2023-02-18T09:13:40;8.00;89.90
55135;DHT22;41031;44.750;11.308;2023-02-18T09:16:11;8.20;89.60
55135;DHT22;41031;44.750;11.308;2023-02-18T09:18:39;8.40;89.20
55135;DHT22;41031;44.750;11.308;2023-02-18T09:21:08;8.50;88.50
55135;DHT22;41031;44.750;11.308;2023-02-18T09:23:36;8.60;88.20
55135;DHT22;41031;44.750;11.308;2023-02-18T09:26:08;8.80;88.00
55135;DHT22;41031;44.750;11.308;2023-02-18T09:28:36;8.90;87.60
55135;DHT22;41031;44.750;11.308;2023-02-18T09:31:09;9.10;87.60
55135;DHT22;41031;44.750;11.308;2023-02-18T09:33:40;9.20;87.30
55135;DHT22;41031;44.750;11.308;2023-02-18T09:36:10;9.40;86.80
55135;DHT22;41031;44.750;11.308;2023-02-18T09:38:39;9.60;86.50
55135;DHT22;41031;44.750;11.308;2023-02-18T09:41:14;9.80;86.30
55135;DHT22;41031;44.750;11.308;2023-02-18T09:43:47;10.00;85.70
55135;DHT22;41031;44.750;11.308;2023-02-18T09:46:22;10.10;84.90
55135;DHT22;41031;44.750;11.308;2023-02-18T09:48:51;10.30;85.10
55135;DHT22;41031;44.750;11.308;2023-02-18T09:51:19;10.40;84.10
55135;DHT22;41031;44.750;11.308;2023-02-18T09:53:46;10.50;83.70
55135;DHT22;41031;44.750;11.308;2023-02-18T09:56:17;10.60;83.30
55135;DHT22;41031;44.750;11.308;2023-02-18T09:58:46;10.80;82.90
55135;DHT22;41031;44.750;11.308;2023-02-18T10:01:31;10.90;82.20
55135;DHT22;41031;44.750;11.308;2023-02-18T10:04:44;11.00;82.00
55135;DHT22;41031;44.750;11.308;2023-02-18T10:06:52;11.10;81.80
55135;DHT22;41031;44.750;11.308;2023-02-18T10:09:36;11.30;81.60
55135;DHT22;41031;44.750;11.308;2023-02-18T10:12:18;11.40;81.30
55135;DHT22;41031;44.750;11.308;2023-02-18T10:14:54;11.50;81.00
55135;DHT22;41031;44.750;11.308;2023-02-18T10:17:24;11.70;80.50
55135;DHT22;41031;44.750;11.308;2023-02-18T10:19:53;11.80;80.10
55135;DHT22;41031;44.750;11.308;2023-02-18T10:22:23;11.90;79.40
55135;DHT22;41031;44.750;11.308;2023-02-18T10:24:58;12.00;78.90
55135;DHT22;41031;44.750;11.308;2023-02-18T10:27:34;12.00;78.60
55135;DHT22;41031;44.750;11.308;2023-02-18T10:30:25;12.10;79.10
55135;DHT22;41031;44.750;11.308;2023-02-18T10:33:04;12.10;79.60
55135;DHT22;41031;44.750;11.308;2023-02-18T10:35:44;12.10;79.10
55135;DHT22;41031;44.750;11.308;2023-02-18T10:41:31;12.20;78.20
55135;DHT22;41031;44.750;11.308;2023-02-18T10:50:34;12.30;78.80
55135;DHT22;41031;44.750;11.308;2023-02-18T10:52:38;12.40;78.70
55135;DHT22;41031;44.750;11.308;2023-02-18T10:55:11;12.40;78.10
55135;DHT22;41031;44.750;11.308;2023-02-18T10:57:48;12.50;78.10
55135;DHT22;41031;44.750;11.308;2023-02-18T11:00:24;12.60;78.20
55135;DHT22;41031;44.750;11.308;2023-02-18T11:05:40;12.80;77.30
55135;DHT22;41031;44.750;11.308;2023-02-18T11:08:12;12.90;77.00
55135;DHT22;41031;44.750;11.308;2023-02-18T11:10:43;13.00;76.40
55135;DHT22;41031;44.750;11.308;2023-02-18T11:13:13;13.10;76.10
55135;DHT22;41031;44.750;11.308;2023-02-18T11:16:04;13.10;75.40
55135;DHT22;41031;44.750;11.308;2023-02-18T11:18:40;13.10;75.60
55135;DHT22;41031;44.750;11.308;2023-02-18T11:21:28;13.20;75.90
55135;DHT22;41031;44.750;11.308;2023-02-18T11:23:57;13.20;76.10
55135;DHT22;41031;44.750;11.308;2023-02-18T11:26:33;13.30;75.60
55135;DHT22;41031;44.750;11.308;2023-02-18T11:29:06;13.40;75.20
55135;DHT22;41031;44.750;11.308;2023-02-18T11:31:43;13.40;75.20
55135;DHT22;41031;44.750;11.308;2023-02-18T11:34:30;13.50;75.00
55135;DHT22;41031;44.750;11.308;2023-02-18T11:37:28;13.50;74.90
55135;DHT22;41031;44.750;11.308;2023-02-18T11:39:58;13.60;74.90
55135;DHT22;41031;44.750;11.308;2023-02-18T11:42:26;13.70;74.90
55135;DHT22;41031;44.750;11.308;2023-02-18T11:44:58;13.80;74.90
55135;DHT22;41031;44.750;11.308;2023-02-18T11:47:36;13.90;74.70
55135;DHT22;41031;44.750;11.308;2023-02-18T11:50:17;14.00;73.80
55135;DHT22;41031;44.750;11.308;2023-02-18T11:52:48;14.00;73.50
55135;DHT22;41031;44.750;11.308;2023-02-18T11:55:20;14.00;73.70
55135;DHT22;41031;44.750;11.308;2023-02-18T11:58:01;14.10;73.30
55135;DHT22;41031;44.750;11.308;2023-02-18T12:00:44;14.10;73.50
55135;DHT22;41031;44.750;11.308;2023-02-18T12:03:32;14.20;73.40
55135;DHT22;41031;44.750;11.308;2023-02-18T12:06:04;14.30;73.20
55135;DHT22;41031;44.750;11.308;2023-02-18T12:08:56;14.40;72.80
55135;DHT22;41031;44.750;11.308;2023-02-18T12:11:36;14.40;73.40
55135;DHT22;41031;44.750;11.308;2023-02-18T12:14:21;14.40;73.10
55135;DHT22;41031;44.750;11.308;2023-02-18T12:22:45;14.50;73.10
55135;DHT22;41031;44.750;11.308;2023-02-18T12:34:46;14.70;73.10
55135;DHT22;41031;44.750;11.308;2023-02-18T12:54:30;15.00;69.90
55135;DHT22;41031;44.750;11.308;2023-02-18T13:05:23;15.30;68.80
55135;DHT22;41031;44.750;11.308;2023-02-18T13:16:27;15.40;68.10
55135;DHT22;41031;44.750;11.308;2023-02-18T13:19:20;15.50;68.30
55135;DHT22;41031;44.750;11.308;2023-02-18T13:21:58;15.50;67.60
55135;DHT22;41031;44.750;11.308;2023-02-18T13:24:37;15.60;67.50
55135;DHT22;41031;44.750;11.308;2023-02-18T13:32:38;15.60;66.70
55135;DHT22;41031;44.750;11.308;2023-02-18T13:35:23;15.60;66.60
55135;DHT22;41031;44.750;11.308;2023-02-18T13:40:28;15.50;66.60
55135;DHT22;41031;44.750;11.308;2023-02-18T13:43:33;15.60;66.60
55135;DHT22;41031;44.750;11.308;2023-02-18T13:51:05;15.60;67.10
55135;DHT22;41031;44.750;11.308;2023-02-18T13:53:37;15.50;67.20
55135;DHT22;41031;44.750;11.308;2023-02-18T13:56:30;15.50;67.80
55135;DHT22;41031;44.750;11.308;2023-02-18T13:59:23;15.50;68.10
55135;DHT22;41031;44.750;11.308;2023-02-18T14:01:53;15.40;67.00
55135;DHT22;41031;44.750;11.308;2023-02-18T14:09:52;15.50;66.80
55135;DHT22;41031;44.750;11.308;2023-02-18T14:26:07;15.40;67.50
55135;DHT22;41031;44.750;11.308;2023-02-18T14:29:13;15.40;67.00
55135;DHT22;41031;44.750;11.308;2023-02-18T14:32:11;15.40;66.60
55135;DHT22;41031;44.750;11.308;2023-02-18T14:37:32;15.30;66.90
55135;DHT22;41031;44.750;11.308;2023-02-18T14:46:17;15.30;67.50
55135;DHT22;41031;44.750;11.308;2023-02-18T14:51:36;15.30;67.80
55135;DHT22;41031;44.750;11.308;2023-02-18T14:54:12;15.30;67.60
55135;DHT22;41031;44.750;11.308;2023-02-18T14:59:17;15.30;67.60
55135;DHT22;41031;44.750;11.308;2023-02-18T15:01:46;15.20;67.60
55135;DHT22;41031;44.750;11.308;2023-02-18T15:04:14;15.20;67.60
55135;DHT22;41031;44.750;11.308;2023-02-18T15:06:42;15.20;67.40
55135;DHT22;41031;44.750;11.308;2023-02-18T15:09:17;15.20;67.60
55135;DHT22;41031;44.750;11.308;2023-02-18T15:11:51;15.10;67.60
55135;DHT22;41031;44.750;11.308;2023-02-18T15:14:44;15.10;67.70
55135;DHT22;41031;44.750;11.308;2023-02-18T15:17:15;15.10;68.00
55135;DHT22;41031;44.750;11.308;2023-02-18T15:19:48;15.10;68.50
55135;DHT22;41031;44.750;11.308;2023-02-18T15:22:20;15.10;68.80
55135;DHT22;41031;44.750;11.308;2023-02-18T15:24:49;15.00;69.10
55135;DHT22;41031;44.750;11.308;2023-02-18T15:27:45;14.90;69.40
55135;DHT22;41031;44.750;11.308;2023-02-18T15:30:30;14.90;69.50
55135;DHT22;41031;44.750;11.308;2023-02-18T15:32:59;14.80;69.70
55135;DHT22;41031;44.750;11.308;2023-02-18T15:35:30;14.80;69.90
55135;DHT22;41031;44.750;11.308;2023-02-18T15:38:00;14.80;70.10
55135;DHT22;41031;44.750;11.308;2023-02-18T15:40:33;14.80;70.30
55135;DHT22;41031;44.750;11.308;2023-02-18T15:43:03;14.70;70.50
55135;DHT22;41031;44.750;11.308;2023-02-18T15:45:40;14.70;70.60
55135;DHT22;41031;44.750;11.308;2023-02-18T15:48:21;14.60;70.80
55135;DHT22;41031;44.750;11.308;2023-02-18T15:50:53;14.60;70.90
55135;DHT22;41031;44.750;11.308;2023-02-18T15:53:28;14.50;71.10
55135;DHT22;41031;44.750;11.308;2023-02-18T15:55:56;14.40;71.30
55135;DHT22;41031;44.750;11.308;2023-02-18T15:58:31;14.40;72.10
55135;DHT22;41031;44.750;11.308;2023-02-18T16:01:04;14.30;71.70
55135;DHT22;41031;44.750;11.308;2023-02-18T16:06:22;14.20;72.40
55135;DHT22;41031;44.750;11.308;2023-02-18T16:09:02;14.10;72.70
55135;DHT22;41031;44.750;11.308;2023-02-18T16:11:33;14.00;72.90
55135;DHT22;41031;44.750;11.308;2023-02-18T16:14:01;14.00;73.10
55135;DHT22;41031;44.750;11.308;2023-02-18T16:16:32;13.90;73.20
55135;DHT22;41031;44.750;11.308;2023-02-18T16:19:00;13.80;73.40
55135;DHT22;41031;44.750;11.308;2023-02-18T16:21:43;13.80;73.70
55135;DHT22;41031;44.750;11.308;2023-02-18T16:24:26;13.70;73.70
55135;DHT22;41031;44.750;11.308;2023-02-18T16:26:56;13.60;73.80
55135;DHT22;41031;44.750;11.308;2023-02-18T16:29:35;13.60;74.10
55135;DHT22;41031;44.750;11.308;2023-02-18T16:32:03;13.50;74.20
55135;DHT22;41031;44.750;11.308;2023-02-18T16:34:32;13.40;74.20
55135;DHT22;41031;44.750;11.308;2023-02-18T16:37:04;13.40;74.40
55135;DHT22;41031;44.750;11.308;2023-02-18T16:39:50;13.30;74.70
55135;DHT22;41031;44.750;11.308;2023-02-18T16:42:21;13.10;74.90
55135;DHT22;41031;44.750;11.308;2023-02-18T16:44:48;13.00;75.00
55135;DHT22;41031;44.750;11.308;2023-02-18T16:47:17;12.90;75.40
55135;DHT22;41031;44.750;11.308;2023-02-18T16:49:46;12.80;75.80
55135;DHT22;41031;44.750;11.308;2023-02-18T16:52:15;12.70;76.00
55135;DHT22;41031;44.750;11.308;2023-02-18T16:54:44;12.70;76.30
55135;DHT22;41031;44.750;11.308;2023-02-18T16:57:14;12.60;76.40
55135;DHT22;41031;44.750;11.308;2023-02-18T16:59:41;12.60;76.50
55135;DHT22;41031;44.750;11.308;2023-02-18T17:02:17;12.50;76.60
55135;DHT22;41031;44.750;11.308;2023-02-18T17:04:47;12.40;76.80
55135;DHT22;41031;44.750;11.308;2023-02-18T17:07:14;12.40;77.00
55135;DHT22;41031;44.750;11.308;2023-02-18T17:09:43;12.30;77.10
55135;DHT22;41031;44.750;11.308;2023-02-18T17:12:10;12.20;77.20
55135;DHT22;41031;44.750;11.308;2023-02-18T17:14:38;12.20;77.40
55135;DHT22;41031;44.750;11.308;2023-02-18T17:17:10;12.10;77.20
55135;DHT22;41031;44.750;11.308;2023-02-18T17:19:38;12.10;77.10
55135;DHT22;41031;44.750;11.308;2023-02-18T17:22:06;12.00;77.40
55135;DHT22;41031;44.750;11.308;2023-02-18T17:24:33;11.90;77.70
55135;DHT22;41031;44.750;11.308;2023-02-18T17:27:00;11.80;77.80
55135;DHT22;41031;44.750;11.308;2023-02-18T17:29:27;11.70;77.70
55135;DHT22;41031;44.750;11.308;2023-02-18T17:31:55;11.70;77.70
55135;DHT22;41031;44.750;11.308;2023-02-18T17:34:28;11.60;77.90
55135;DHT22;41031;44.750;11.308;2023-02-18T17:36:56;11.50;78.20
55135;DHT22;41031;44.750;11.308;2023-02-18T17:39:23;11.40;78.50
55135;DHT22;41031;44.750;11.308;2023-02-18T17:41:51;11.40;78.70
55135;DHT22;41031;44.750;11.308;2023-02-18T17:44:21;11.30;78.60
55135;DHT22;41031;44.750;11.308;2023-02-18T17:46:48;11.20;78.60
55135;DHT22;41031;44.750;11.308;2023-02-18T17:49:16;11.10;79.00
55135;DHT22;41031;44.750;11.308;2023-02-18T17:51:46;11.10;79.40
55135;DHT22;41031;44.750;11.308;2023-02-18T17:54:17;11.00;79.60
55135;DHT22;41031;44.750;11.308;2023-02-18T17:56:45;10.90;80.00
55135;DHT22;41031;44.750;11.308;2023-02-18T17:59:15;10.80;80.30
55135;DHT22;41031;44.750;11.308;2023-02-18T18:01:43;10.80;80.40
55135;DHT22;41031;44.750;11.308;2023-02-18T18:04:16;10.70;80.60
55135;DHT22;41031;44.750;11.308;2023-02-18T18:06:44;10.70;80.90
55135;DHT22;41031;44.750;11.308;2023-02-18T18:09:12;10.70;81.00
55135;DHT22;41031;44.750;11.308;2023-02-18T18:11:39;10.60;81.10
55135;DHT22;41031;44.750;11.308;2023-02-18T18:14:10;10.60;81.30
55135;DHT22;41031;44.750;11.308;2023-02-18T18:16:38;10.60;81.60
55135;DHT22;41031;44.750;11.308;2023-02-18T18:19:07;10.60;81.80